Briefing drone pour Cran-gevrier

Rechercher une autre localisation

Conditions de vol :


Nous sommes le : Dimanche 16 mai 2021
Il est 23:13 UTC (01:13 LT)

Lever de soleil : 03:35 UTC (05:35 LT)
Coucher de soleil : 19:28 UTC (21:28 LT)

Météo

L'essentiel des conditions de vol

VIGILANCE MÉTÉO FRANCE - Haute-Savoie (74)
Vigilance Jaune : Avalanches
CARTE TEMSI
CARTES DES FRONTS
METAR de LFLP
LFLP 152300Z AUTO 32001KT 9999 BKN013/// OVC021/// ///TCU 10/10 Q1010

Date d'émission: 15/05/2021
Heure d'émission: 23:00 UTC
Vent: 320° pour 1 KT (2 km/h)
Visibilité horizontale: > 10 km
Plafond :
- Nuages morcelés à 1300ft (396m)
- Couvert à 2100ft (640m)
Température: 10 °C
Point de rosée: 10 °C
Humidité: 100%
Pression (QNH): 1010 hPa
TAF de LFLP
AMD LFLP 151904Z 1519/1615 CNL

Conditions prévues :

Heure d'émission : Bulletin éffectué le 15 à 19:00 UTC
Prévision : Valide du 15 a 19:00 UTC au 16 a 15:00 UTC
Nuages : à 0ft (0 m)
WEBCAM POUR CRAN-GEVRIER

Réglementation

Voler en sécurité

CARTES AERONAUTIQUE 1/500.000
CARTES VAC (LFLP)
SUP AIP




Chargement des AIP...
NOTAM (CRAN-GEVRIER + Terrain à proximité / FIR )




Chargement des NOTAMS...
CONTACT PREFECTURE 74


Avertissement : Les données mises à disposition sont indicatives. Oxygène Drone ne pourra être tenu responsable de dégâts causés aux biens et aux personnes.